Time;durP1;ratioP1;P1;durP2;ratioP2;P2;SDS_P1;SDS_P2;PMS_P1;PMS_P2;Temp;Humidity;BMP_temperature;BMP_pressure;BME280_temperature;BME280_humidity;BME280_pressure;Samples;Min_cycle;Max_cycle;Signal;HPM_P1;HPM_P2
2024/04/01 00:00:07;;;;;;;13.82;4.50;;;;;;;;;;5021093;28;20359;-66
2024/04/01 00:02:33;;;;;;;8.32;4.07;;;;;;;;;;5019227;28;20154;-66
2024/04/01 00:04:59;;;;;;;7.80;4.20;;;;;;;;;;5017152;28;20038;-66
2024/04/01 00:07:25;;;;;;;8.15;4.10;;;;;;;;;;5024104;28;20060;-66
2024/04/01 00:09:51;;;;;;;9.80;4.57;;;;;;;;;;5014302;28;20117;-65
2024/04/01 00:12:16;;;;;;;9.60;4.13;;;;;;;;;;5013455;28;20062;-67
2024/04/01 00:14:42;;;;;;;9.57;4.60;;;;;;;;;;5021454;28;20029;-66
2024/04/01 00:17:08;;;;;;;7.38;4.45;;;;;;;;;;5018345;28;20048;-64
2024/04/01 00:19:34;;;;;;;8.35;4.50;;;;;;;;;;5013228;28;20447;-65
2024/04/01 00:22:00;;;;;;;8.82;4.13;;;;;;;;;;5014732;28;20026;-65
2024/04/01 00:24:26;;;;;;;9.52;5.28;;;;;;;;;;5009715;28;20901;-65
2024/04/01 00:26:52;;;;;;;8.43;4.63;;;;;;;;;;5012803;28;20131;-65
2024/04/01 00:29:18;;;;;;;10.07;4.82;;;;;;;;;;5017085;28;20415;-65
2024/04/01 00:31:44;;;;;;;7.88;4.68;;;;;;;;;;5011943;28;20050;-65
2024/04/01 00:34:09;;;;;;;11.43;5.45;;;;;;;;;;5011885;28;20033;-65
2024/04/01 00:36:35;;;;;;;9.95;4.90;;;;;;;;;;5017481;28;20033;-65
2024/04/01 00:39:02;;;;;;;8.10;4.63;;;;;;;;;;5015801;28;20041;-66
2024/04/01 00:41:28;;;;;;;8.20;4.32;;;;;;;;;;5007107;28;20037;-66
2024/04/01 00:43:53;;;;;;;8.73;4.93;;;;;;;;;;5019348;28;20029;-65
2024/04/01 00:46:20;;;;;;;9.35;4.60;;;;;;;;;;5011501;28;20022;-65
2024/04/01 00:48:47;;;;;;;9.07;4.50;;;;;;;;;;5010749;28;20037;-65
2024/04/01 00:51:13;;;;;;;8.63;4.03;;;;;;;;;;5013185;28;20033;-66
2024/04/01 00:53:39;;;;;;;8.48;4.22;;;;;;;;;;5011515;28;20045;-65
2024/04/01 00:56:05;;;;;;;9.20;4.60;;;;;;;;;;5009580;28;20087;-64
2024/04/01 00:58:31;;;;;;;9.00;4.63;;;;;;;;;;5008841;28;20034;-66
2024/04/01 01:00:57;;;;;;;8.73;4.07;;;;;;;;;;5014601;28;20044;-64
2024/04/01 01:03:24;;;;;;;9.63;5.00;;;;;;;;;;5007839;28;20065;-64
2024/04/01 01:05:50;;;;;;;9.80;4.65;;;;;;;;;;5015971;28;20070;-64
2024/04/01 01:08:16;;;;;;;7.60;4.65;;;;;;;;;;5007399;28;20457;-64
2024/04/01 01:10:42;;;;;;;9.32;4.82;;;;;;;;;;5005813;28;20056;-65
2024/04/01 01:13:07;;;;;;;10.10;5.45;;;;;;;;;;5007031;28;20040;-64
2024/04/01 01:15:34;;;;;;;7.90;3.83;;;;;;;;;;5012397;28;20045;-64
2024/04/01 01:18:00;;;;;;;10.48;4.45;;;;;;;;;;5014786;28;20037;-65
2024/04/01 01:20:26;;;;;;;7.50;4.65;;;;;;;;;;5007249;28;20061;-65
2024/04/01 01:22:52;;;;;;;7.63;4.40;;;;;;;;;;5013616;28;20072;-64
2024/04/01 01:25:17;;;;;;;7.05;4.22;;;;;;;;;;5009399;28;20069;-64
2024/04/01 01:27:44;;;;;;;8.98;4.45;;;;;;;;;;5011687;28;20034;-64
2024/04/01 01:30:16;;;;;;;8.95;4.75;;;;;;;;;;5011174;28;20049;-64
2024/04/01 01:32:49;;;;;;;10.15;5.07;;;;;;;;;;5009628;28;20029;-66
2024/04/01 01:35:21;;;;;;;9.43;4.45;;;;;;;;;;5017349;28;20086;-64
2024/04/01 01:37:48;;;;;;;9.43;4.78;;;;;;;;;;5010748;28;20494;-64
2024/04/01 01:40:13;;;;;;;8.77;4.72;;;;;;;;;;5011750;28;20025;-64
2024/04/01 01:42:39;;;;;;;10.73;5.38;;;;;;;;;;5009921;28;20028;-64
2024/04/01 01:45:06;;;;;;;8.07;4.55;;;;;;;;;;5012405;28;20041;-64
2024/04/01 01:47:32;;;;;;;7.57;4.60;;;;;;;;;;5013353;28;20033;-65
2024/04/01 01:49:58;;;;;;;9.95;4.28;;;;;;;;;;5010162;28;20423;-64
2024/04/01 01:52:24;;;;;;;8.25;4.63;;;;;;;;;;5005893;28;20402;-64
2024/04/01 01:54:50;;;;;;;8.35;4.63;;;;;;;;;;5009427;28;20026;-64
2024/04/01 01:57:16;;;;;;;7.65;4.32;;;;;;;;;;5008259;28;20109;-65
2024/04/01 01:59:42;;;;;;;10.52;5.63;;;;;;;;;;5016469;28;20068;-66
2024/04/01 02:02:08;;;;;;;10.23;4.72;;;;;;;;;;5017784;28;20088;-65
2024/04/01 02:04:34;;;;;;;13.27;5.88;;;;;;;;;;5012860;28;20196;-65
2024/04/01 02:07:00;;;;;;;9.02;5.18;;;;;;;;;;5010714;28;20022;-65
2024/04/01 02:09:26;;;;;;;10.05;4.38;;;;;;;;;;5011929;28;20033;-65
2024/04/01 02:11:53;;;;;;;9.15;4.72;;;;;;;;;;5012629;28;20041;-64
2024/04/01 02:14:19;;;;;;;11.18;5.25;;;;;;;;;;5014320;28;20022;-64
2024/04/01 02:16:45;;;;;;;9.57;5.22;;;;;;;;;;5018468;28;20018;-64
2024/04/01 02:19:11;;;;;;;11.00;4.40;;;;;;;;;;5014191;28;20038;-65
2024/04/01 02:21:37;;;;;;;13.20;5.53;;;;;;;;;;5029940;28;20026;-65
2024/04/01 02:24:03;;;;;;;10.02;5.03;;;;;;;;;;5016277;28;20022;-65
2024/04/01 02:26:29;;;;;;;8.55;4.47;;;;;;;;;;5011500;28;20117;-64
2024/04/01 02:28:55;;;;;;;10.70;5.32;;;;;;;;;;5011211;28;20033;-64
2024/04/01 02:31:21;;;;;;;9.75;5.05;;;;;;;;;;5012210;28;20510;-64
2024/04/01 02:33:47;;;;;;;7.45;4.82;;;;;;;;;;5019220;28;20065;-65
2024/04/01 02:36:13;;;;;;;10.55;4.75;;;;;;;;;;5015857;28;20043;-65
2024/04/01 02:38:38;;;;;;;9.40;5.07;;;;;;;;;;5014018;28;20097;-64
2024/04/01 02:41:04;;;;;;;9.13;5.00;;;;;;;;;;5022243;28;20029;-64
2024/04/01 02:43:30;;;;;;;8.65;4.70;;;;;;;;;;5019076;28;20087;-64
2024/04/01 02:45:56;;;;;;;8.25;4.93;;;;;;;;;;5024709;28;21877;-65
2024/04/01 02:48:22;;;;;;;8.30;4.30;;;;;;;;;;5019748;28;20033;-66
2024/04/01 02:50:48;;;;;;;9.45;5.05;;;;;;;;;;5018464;28;20103;-64
2024/04/01 02:53:14;;;;;;;6.55;4.10;;;;;;;;;;5018154;28;20037;-65
2024/04/01 02:55:40;;;;;;;9.00;4.40;;;;;;;;;;5027331;28;21304;-65
2024/04/01 02:58:06;;;;;;;11.55;4.85;;;;;;;;;;5016779;28;20090;-65
2024/04/01 03:00:32;;;;;;;11.15;5.32;;;;;;;;;;5017504;28;20040;-64
2024/04/01 03:02:58;;;;;;;10.95;5.22;;;;;;;;;;5019347;28;20486;-64
2024/04/01 03:05:24;;;;;;;7.18;4.50;;;;;;;;;;5015201;28;20033;-65
2024/04/01 03:07:50;;;;;;;11.25;4.90;;;;;;;;;;5014969;28;20093;-65
2024/04/01 03:10:16;;;;;;;10.65;5.65;;;;;;;;;;5015199;28;20138;-64
2024/04/01 03:12:43;;;;;;;10.70;5.97;;;;;;;;;;5008422;28;20171;-65
2024/04/01 03:15:10;;;;;;;9.82;5.60;;;;;;;;;;5015702;28;20116;-65
2024/04/01 03:17:36;;;;;;;9.25;5.47;;;;;;;;;;5023433;28;20036;-64
2024/04/01 03:20:05;;;;;;;12.50;5.70;;;;;;;;;;5016260;28;20041;-65
2024/04/01 03:22:30;;;;;;;9.90;5.45;;;;;;;;;;5017421;28;20120;-66
2024/04/01 03:24:56;;;;;;;12.05;6.55;;;;;;;;;;5018654;28;20108;-65
2024/04/01 03:27:22;;;;;;;9.60;5.50;;;;;;;;;;5011359;28;20105;-64
2024/04/01 03:29:48;;;;;;;10.60;5.25;;;;;;;;;;5017009;28;20366;-64
2024/04/01 03:32:16;;;;;;;10.25;5.30;;;;;;;;;;5015451;28;20030;-64
2024/04/01 03:34:42;;;;;;;10.52;5.60;;;;;;;;;;5017634;28;20385;-64
2024/04/01 03:37:08;;;;;;;11.15;6.00;;;;;;;;;;5019461;28;20104;-65
2024/04/01 03:39:34;;;;;;;9.68;5.10;;;;;;;;;;5017903;28;20485;-64
2024/04/01 03:42:00;;;;;;;10.65;6.00;;;;;;;;;;5016518;28;20116;-64
2024/04/01 03:44:26;;;;;;;9.52;5.72;;;;;;;;;;5016782;28;20443;-64
2024/04/01 03:46:52;;;;;;;9.18;5.35;;;;;;;;;;5019898;28;20039;-65
2024/04/01 03:49:18;;;;;;;11.35;5.30;;;;;;;;;;5017477;28;20052;-64
2024/04/01 03:51:44;;;;;;;8.40;5.22;;;;;;;;;;5017981;28;20071;-64
2024/04/01 03:54:10;;;;;;;10.32;5.13;;;;;;;;;;5010073;28;20068;-65
2024/04/01 03:56:36;;;;;;;11.00;5.43;;;;;;;;;;5011906;28;20152;-65
2024/04/01 03:59:02;;;;;;;9.95;4.80;;;;;;;;;;5015226;28;20097;-65
2024/04/01 04:01:29;;;;;;;10.15;5.55;;;;;;;;;;5019306;28;20029;-64
2024/04/01 04:03:55;;;;;;;9.07;5.20;;;;;;;;;;5019681;28;20084;-65
2024/04/01 04:06:21;;;;;;;11.48;5.50;;;;;;;;;;5017271;28;20146;-65
2024/04/01 04:08:47;;;;;;;9.90;5.47;;;;;;;;;;5017709;28;20323;-64
2024/04/01 04:11:13;;;;;;;9.88;5.78;;;;;;;;;;5015129;28;20095;-65
2024/04/01 04:13:39;;;;;;;14.40;6.18;;;;;;;;;;5018312;28;20057;-66
2024/04/01 04:16:05;;;;;;;9.40;5.80;;;;;;;;;;5016921;28;20037;-65
2024/04/01 04:18:31;;;;;;;11.23;6.20;;;;;;;;;;5014601;28;20040;-66
2024/04/01 04:20:57;;;;;;;11.82;5.60;;;;;;;;;;5018775;28;20041;-65
2024/04/01 04:23:23;;;;;;;9.65;5.18;;;;;;;;;;5018244;28;20022;-66
2024/04/01 04:25:49;;;;;;;11.27;5.32;;;;;;;;;;5024631;28;20362;-65
2024/04/01 04:28:15;;;;;;;11.05;5.25;;;;;;;;;;5017177;28;20034;-65
2024/04/01 04:30:41;;;;;;;11.15;5.78;;;;;;;;;;5026448;28;20040;-65
2024/04/01 04:33:07;;;;;;;11.02;6.00;;;;;;;;;;5013560;28;20037;-64
2024/04/01 04:35:33;;;;;;;9.98;5.28;;;;;;;;;;5017212;28;20034;-64
2024/04/01 04:37:59;;;;;;;10.55;6.03;;;;;;;;;;5015904;28;20052;-64
2024/04/01 04:40:27;;;;;;;10.38;5.88;;;;;;;;;;5011744;28;20038;-64
2024/04/01 04:42:53;;;;;;;11.38;5.45;;;;;;;;;;5012700;28;20057;-64
2024/04/01 04:45:22;;;;;;;14.98;6.50;;;;;;;;;;5020512;28;20417;-64
2024/04/01 04:47:48;;;;;;;11.40;6.00;;;;;;;;;;5023122;28;20064;-64
2024/04/01 04:50:14;;;;;;;10.30;5.65;;;;;;;;;;5011323;28;20085;-62
2024/04/01 04:52:39;;;;;;;12.50;5.80;;;;;;;;;;5016185;28;20119;-62
2024/04/01 04:55:05;;;;;;;11.45;6.03;;;;;;;;;;5018163;28;20439;-63
2024/04/01 04:57:31;;;;;;;11.20;6.13;;;;;;;;;;5022029;28;20136;-63
2024/04/01 04:59:57;;;;;;;9.90;5.68;;;;;;;;;;5012016;28;20355;-63
2024/04/01 05:02:23;;;;;;;11.18;5.85;;;;;;;;;;5013596;28;20065;-63
2024/04/01 05:04:49;;;;;;;10.68;5.68;;;;;;;;;;5014819;28;20088;-63
2024/04/01 05:07:16;;;;;;;11.95;6.15;;;;;;;;;;5021732;28;20354;-63
2024/04/01 05:09:42;;;;;;;11.85;6.05;;;;;;;;;;5016658;28;20030;-63
2024/04/01 05:12:08;;;;;;;13.82;6.82;;;;;;;;;;5012137;28;20645;-63
2024/04/01 05:14:34;;;;;;;11.23;6.20;;;;;;;;;;5023678;28;20405;-64
2024/04/01 05:17:00;;;;;;;11.93;6.63;;;;;;;;;;5020243;28;20025;-64
2024/04/01 05:19:26;;;;;;;13.07;7.20;;;;;;;;;;5011856;28;20410;-65
2024/04/01 05:21:52;;;;;;;11.75;5.63;;;;;;;;;;5013810;28;20033;-65
2024/04/01 05:24:18;;;;;;;11.82;7.18;;;;;;;;;;5016922;28;20033;-65
2024/04/01 05:26:44;;;;;;;10.57;6.20;;;;;;;;;;5010344;28;20162;-64
2024/04/01 05:29:10;;;;;;;14.15;6.43;;;;;;;;;;5018265;28;20054;-64
2024/04/01 05:31:36;;;;;;;12.48;6.30;;;;;;;;;;5013971;28;20114;-64
2024/04/01 05:34:03;;;;;;;11.55;6.03;;;;;;;;;;5023483;28;20100;-64
2024/04/01 05:36:31;;;;;;;13.75;7.00;;;;;;;;;;5022910;28;20029;-64
2024/04/01 05:38:57;;;;;;;13.43;6.25;;;;;;;;;;5019679;28;20096;-65
2024/04/01 05:41:23;;;;;;;12.43;6.63;;;;;;;;;;5016908;28;20033;-64
2024/04/01 05:43:49;;;;;;;10.65;6.40;;;;;;;;;;5023849;28;20034;-63
2024/04/01 05:46:16;;;;;;;11.48;6.28;;;;;;;;;;5023268;28;20076;-63
2024/04/01 05:48:43;;;;;;;11.23;6.00;;;;;;;;;;5019783;28;20029;-62
2024/04/01 05:51:09;;;;;;;14.23;6.30;;;;;;;;;;5021383;28;20124;-63
2024/04/01 05:53:36;;;;;;;11.70;6.32;;;;;;;;;;5021527;28;20036;-63
2024/04/01 05:56:03;;;;;;;14.95;7.15;;;;;;;;;;5017443;28;20172;-63
2024/04/01 05:58:29;;;;;;;13.82;7.05;;;;;;;;;;5015762;28;20107;-63
2024/04/01 06:00:56;;;;;;;12.57;6.43;;;;;;;;;;5021710;28;20498;-63
2024/04/01 06:03:22;;;;;;;15.88;7.53;;;;;;;;;;5025865;28;20429;-63
2024/04/01 06:05:48;;;;;;;12.68;7.03;;;;;;;;;;5018340;28;20113;-63
2024/04/01 06:08:14;;;;;;;11.95;6.28;;;;;;;;;;5020762;28;20037;-63
2024/04/01 06:10:40;;;;;;;10.75;6.35;;;;;;;;;;5015362;28;20025;-64
2024/04/01 06:13:06;;;;;;;14.70;6.90;;;;;;;;;;5012688;28;20057;-64
2024/04/01 06:15:32;;;;;;;14.43;6.80;;;;;;;;;;5019130;28;20034;-64
2024/04/01 06:17:58;;;;;;;11.38;6.38;;;;;;;;;;5024624;28;20473;-64
2024/04/01 06:20:24;;;;;;;15.43;7.65;;;;;;;;;;5016687;28;20034;-64
2024/04/01 06:22:50;;;;;;;13.02;7.07;;;;;;;;;;5017479;28;20171;-64
2024/04/01 06:25:16;;;;;;;13.93;6.90;;;;;;;;;;5019875;28;20033;-64
2024/04/01 06:27:42;;;;;;;12.68;6.95;;;;;;;;;;5019846;28;20030;-64
2024/04/01 06:30:08;;;;;;;11.93;7.22;;;;;;;;;;5011570;28;20332;-64
2024/04/01 06:32:34;;;;;;;13.35;6.82;;;;;;;;;;5024069;28;20088;-64
2024/04/01 06:35:00;;;;;;;12.60;6.35;;;;;;;;;;5013245;28;20304;-64
2024/04/01 06:37:26;;;;;;;12.98;7.30;;;;;;;;;;5011380;28;20029;-64
2024/04/01 06:39:55;;;;;;;16.05;7.53;;;;;;;;;;5012646;28;20124;-64
2024/04/01 06:42:21;;;;;;;12.93;7.20;;;;;;;;;;5007293;28;20034;-65
2024/04/01 06:44:50;;;;;;;13.27;7.28;;;;;;;;;;5021672;28;20065;-65
2024/04/01 06:47:16;;;;;;;16.40;7.38;;;;;;;;;;5010422;28;20474;-64
2024/04/01 06:49:42;;;;;;;11.18;6.32;;;;;;;;;;5014123;28;20049;-65
2024/04/01 06:52:08;;;;;;;12.10;7.00;;;;;;;;;;5012598;28;20117;-64
2024/04/01 06:54:34;;;;;;;15.40;7.50;;;;;;;;;;5015260;28;20030;-64
2024/04/01 06:57:01;;;;;;;15.98;6.78;;;;;;;;;;5013313;28;20072;-64
2024/04/01 06:59:27;;;;;;;13.25;6.22;;;;;;;;;;5010650;28;20124;-64
2024/04/01 07:01:53;;;;;;;12.82;7.03;;;;;;;;;;5018242;28;20438;-65
2024/04/01 07:04:19;;;;;;;14.27;7.78;;;;;;;;;;5025995;28;20029;-64
2024/04/01 07:06:45;;;;;;;11.95;7.13;;;;;;;;;;5014247;28;20433;-64
2024/04/01 07:09:10;;;;;;;13.23;7.35;;;;;;;;;;5015019;28;20680;-67
2024/04/01 07:11:36;;;;;;;12.88;7.13;;;;;;;;;;5013960;28;20146;-65
2024/04/01 07:14:02;;;;;;;12.70;7.05;;;;;;;;;;5016833;28;20045;-64
2024/04/01 07:16:28;;;;;;;15.23;6.82;;;;;;;;;;5021009;28;20029;-64
2024/04/01 07:18:54;;;;;;;11.65;6.55;;;;;;;;;;5011452;28;20079;-64
2024/04/01 07:21:20;;;;;;;12.00;6.60;;;;;;;;;;5015299;28;20134;-65
2024/04/01 07:23:46;;;;;;;11.45;6.47;;;;;;;;;;5017355;28;20065;-65
2024/04/01 07:26:12;;;;;;;13.73;7.53;;;;;;;;;;5022121;28;20101;-65
2024/04/01 07:28:38;;;;;;;15.80;7.35;;;;;;;;;;5015559;28;20131;-64
2024/04/01 07:31:07;;;;;;;14.52;7.70;;;;;;;;;;5019546;28;20486;-64
2024/04/01 07:33:33;;;;;;;13.93;7.88;;;;;;;;;;5016413;28;20088;-64
2024/04/01 07:35:59;;;;;;;11.48;6.80;;;;;;;;;;5014473;28;20069;-64
2024/04/01 07:38:25;;;;;;;11.82;6.78;;;;;;;;;;5014802;28;20033;-65
2024/04/01 07:40:51;;;;;;;11.77;7.38;;;;;;;;;;5016853;28;20224;-65
2024/04/01 07:43:17;;;;;;;12.73;7.57;;;;;;;;;;5017751;28;20048;-64
2024/04/01 07:45:43;;;;;;;14.30;8.00;;;;;;;;;;5020480;28;20364;-64
2024/04/01 07:48:09;;;;;;;14.18;8.07;;;;;;;;;;5026228;28;20049;-66
2024/04/01 07:50:35;;;;;;;14.20;7.95;;;;;;;;;;5020273;28;20044;-64
2024/04/01 07:53:01;;;;;;;14.82;7.80;;;;;;;;;;5009821;28;20034;-65
2024/04/01 07:55:27;;;;;;;13.98;7.10;;;;;;;;;;5011873;28;20030;-65
2024/04/01 07:57:53;;;;;;;13.88;7.47;;;;;;;;;;5016894;28;20092;-65
2024/04/01 08:00:19;;;;;;;13.38;7.82;;;;;;;;;;5019784;28;20370;-64
2024/04/01 08:02:45;;;;;;;15.68;7.75;;;;;;;;;;5015303;28;20092;-64
2024/04/01 08:05:10;;;;;;;13.65;7.97;;;;;;;;;;5023999;28;20022;-64
2024/04/01 08:07:36;;;;;;;16.23;8.10;;;;;;;;;;5011969;28;20030;-65
2024/04/01 08:10:03;;;;;;;14.52;7.38;;;;;;;;;;5010774;28;20471;-65
2024/04/01 08:12:29;;;;;;;14.48;8.20;;;;;;;;;;5009031;28;20049;-68
2024/04/01 08:14:55;;;;;;;15.25;8.00;;;;;;;;;;5022702;28;20056;-65
2024/04/01 08:17:21;;;;;;;17.30;8.32;;;;;;;;;;5020480;28;20133;-66
2024/04/01 08:19:47;;;;;;;15.20;8.20;;;;;;;;;;5015886;28;20175;-65
2024/04/01 08:22:14;;;;;;;17.00;8.50;;;;;;;;;;5018164;28;20026;-65
2024/04/01 08:24:40;;;;;;;15.18;8.50;;;;;;;;;;5020646;28;20103;-64
2024/04/01 08:27:06;;;;;;;16.48;8.15;;;;;;;;;;5007976;28;20528;-66
2024/04/01 08:29:32;;;;;;;12.48;6.95;;;;;;;;;;5017264;28;20113;-64
2024/04/01 08:31:57;;;;;;;15.75;8.13;;;;;;;;;;5020538;28;20128;-65
2024/04/01 08:34:23;;;;;;;16.25;8.32;;;;;;;;;;5020211;28;20127;-64
2024/04/01 08:36:49;;;;;;;14.73;8.38;;;;;;;;;;5013820;28;20033;-65
2024/04/01 08:39:15;;;;;;;14.43;7.85;;;;;;;;;;5009231;28;20560;-65
2024/04/01 08:41:49;;;;;;;15.40;7.97;;;;;;;;;;5011416;28;20026;-64
2024/04/01 08:44:16;;;;;;;15.40;8.18;;;;;;;;;;5011625;28;20026;-64
2024/04/01 08:46:46;;;;;;;15.52;8.13;;;;;;;;;;5021640;28;20037;-66
2024/04/01 08:49:12;;;;;;;16.95;8.20;;;;;;;;;;5017397;28;20056;-65
2024/04/01 08:51:39;;;;;;;13.00;7.70;;;;;;;;;;5019949;28;20067;-65
2024/04/01 08:54:08;;;;;;;14.25;7.93;;;;;;;;;;5013748;28;20112;-64
2024/04/01 08:56:34;;;;;;;15.73;8.40;;;;;;;;;;5009370;28;20393;-63
2024/04/01 08:59:00;;;;;;;13.00;7.78;;;;;;;;;;5012752;28;20026;-64
2024/04/01 09:01:26;;;;;;;11.43;6.90;;;;;;;;;;5015582;28;20404;-64
2024/04/01 09:03:52;;;;;;;13.10;7.95;;;;;;;;;;5016170;28;20115;-64
2024/04/01 09:06:19;;;;;;;11.88;7.10;;;;;;;;;;5011326;28;20030;-65
2024/04/01 09:08:46;;;;;;;14.10;7.57;;;;;;;;;;5012701;28;20025;-65
2024/04/01 09:11:12;;;;;;;14.00;7.30;;;;;;;;;;5020593;28;20037;-65
2024/04/01 09:13:38;;;;;;;14.32;8.13;;;;;;;;;;5012637;28;20037;-64
2024/04/01 09:16:04;;;;;;;13.88;6.93;;;;;;;;;;5017425;28;20033;-64
2024/04/01 09:18:35;;;;;;;13.52;7.63;;;;;;;;;;5012909;28;20053;-64
2024/04/01 09:21:01;;;;;;;11.18;7.07;;;;;;;;;;5009460;28;20137;-65
2024/04/01 09:23:30;;;;;;;12.95;6.60;;;;;;;;;;5015168;28;20041;-64
2024/04/01 09:25:57;;;;;;;11.88;6.75;;;;;;;;;;5008715;28;20431;-64
2024/04/01 09:28:23;;;;;;;10.35;5.78;;;;;;;;;;5011246;28;20459;-65
2024/04/01 09:30:50;;;;;;;12.20;6.32;;;;;;;;;;5012512;28;20113;-64
2024/04/01 09:33:16;;;;;;;11.32;6.93;;;;;;;;;;5009125;28;20049;-65
2024/04/01 09:35:41;;;;;;;14.75;8.10;;;;;;;;;;5013027;28;20314;-65
2024/04/01 09:38:08;;;;;;;15.40;9.02;;;;;;;;;;5014752;28;20033;-65
2024/04/01 09:40:34;;;;;;;16.40;8.70;;;;;;;;;;5014711;28;20053;-64
2024/04/01 09:43:00;;;;;;;15.82;9.02;;;;;;;;;;5009108;28;20048;-65
2024/04/01 09:45:28;;;;;;;17.92;11.48;;;;;;;;;;5012105;28;20628;-64
2024/04/01 09:47:54;;;;;;;13.88;9.40;;;;;;;;;;5011765;28;20475;-64
2024/04/01 09:50:24;;;;;;;12.45;8.10;;;;;;;;;;5008201;28;20030;-64
2024/04/01 09:52:50;;;;;;;13.52;8.68;;;;;;;;;;5016594;28;20022;-64
2024/04/01 09:55:20;;;;;;;18.00;8.15;;;;;;;;;;5010584;28;20351;-64
2024/04/01 09:58:10;;;;;;;11.70;7.07;;;;;;;;;;5008982;28;20081;-65
2024/04/01 10:00:50;;;;;;;12.63;8.07;;;;;;;;;;5015453;28;20080;-64
2024/04/01 10:03:16;;;;;;;14.53;8.23;;;;;;;;;;5012725;28;20064;-64
2024/04/01 10:05:51;;;;;;;13.00;7.10;;;;;;;;;;5014126;28;20030;-64
2024/04/01 10:08:23;;;;;;;12.95;8.10;;;;;;;;;;5013659;28;20168;-64
2024/04/01 10:10:55;;;;;;;14.55;8.73;;;;;;;;;;5013323;28;20445;-64
2024/04/01 10:13:44;;;;;;;13.05;7.68;;;;;;;;;;5004930;28;20030;-65
2024/04/01 10:16:12;;;;;;;15.85;8.55;;;;;;;;;;5015255;28;20030;-64
2024/04/01 10:18:58;;;;;;;13.70;8.20;;;;;;;;;;5017990;28;20056;-64
2024/04/01 10:21:36;;;;;;;14.30;7.72;;;;;;;;;;5023306;28;20052;-64
2024/04/01 10:24:11;;;;;;;13.27;7.88;;;;;;;;;;5023128;28;20106;-65
2024/04/01 10:26:54;;;;;;;15.13;8.00;;;;;;;;;;5015008;28;20420;-67
2024/04/01 10:29:58;;;;;;;14.85;7.40;;;;;;;;;;5023145;28;20114;-64
2024/04/01 10:32:39;;;;;;;12.60;8.00;;;;;;;;;;4956534;28;20050;-64
2024/04/01 10:35:29;;;;;;;17.17;8.85;;;;;;;;;;4959795;28;20149;-64
2024/04/01 10:38:20;;;;;;;12.73;7.50;;;;;;;;;;4999171;28;20388;-66
2024/04/01 10:41:01;;;;;;;15.95;8.52;;;;;;;;;;5019523;28;20025;-64
2024/04/01 10:43:27;;;;;;;;;;;;;;;;;;5011226;28;20058;-65
2024/04/01 10:46:03;;;;;;;11.73;6.55;;;;;;;;;;5017017;28;19967;-65
2024/04/01 10:48:29;;;;;;;14.05;7.47;;;;;;;;;;5019761;28;20314;-64
2024/04/01 10:51:10;;;;;;;13.43;7.65;;;;;;;;;;5017807;28;20152;-64
2024/04/01 10:53:45;;;;;;;13.20;6.93;;;;;;;;;;5021712;28;20113;-65
2024/04/01 10:56:26;;;;;;;12.52;7.57;;;;;;;;;;5019856;28;20033;-66
2024/04/01 10:59:05;;;;;;;14.57;6.82;;;;;;;;;;5019442;28;20104;-64
2024/04/01 11:01:37;;;;;;;12.75;7.20;;;;;;;;;;5027318;28;20418;-65
2024/04/01 11:04:02;;;;;;;10.20;5.82;;;;;;;;;;5013859;28;20347;-65
2024/04/01 11:06:37;;;;;;;11.88;6.70;;;;;;;;;;5027631;28;20045;-65
2024/04/01 11:09:13;;;;;;;12.60;6.90;;;;;;;;;;5017363;28;20030;-65
2024/04/01 11:11:46;;;;;;;11.43;6.53;;;;;;;;;;5015636;28;20022;-65
2024/04/01 11:14:12;;;;;;;12.32;6.75;;;;;;;;;;5018715;28;20033;-65
2024/04/01 11:16:42;;;;;;;10.77;5.75;;;;;;;;;;5019285;28;20704;-64
2024/04/01 11:19:16;;;;;;;11.60;6.38;;;;;;;;;;5016233;28;20429;-64
2024/04/01 11:21:50;;;;;;;9.57;6.25;;;;;;;;;;5037683;28;20049;-64
2024/04/01 11:24:33;;;;;;;12.40;7.18;;;;;;;;;;5016405;28;20090;-65
2024/04/01 11:27:19;;;;;;;10.00;6.60;;;;;;;;;;5009478;28;20037;-64
2024/04/01 11:30:07;;;;;;;10.45;5.57;;;;;;;;;;5007925;28;20041;-64
2024/04/01 11:32:33;;;;;;;12.00;6.63;;;;;;;;;;5019238;28;20129;-64
2024/04/01 11:35:03;;;;;;;10.55;6.43;;;;;;;;;;5006753;28;20034;-64
2024/04/01 11:37:35;;;;;;;14.43;6.00;;;;;;;;;;5016749;28;20026;-64
2024/04/01 11:40:03;;;;;;;11.27;6.43;;;;;;;;;;5012359;28;20053;-64
2024/04/01 11:42:30;;;;;;;14.93;6.93;;;;;;;;;;5009675;28;20030;-64
2024/04/01 11:44:57;;;;;;;12.27;6.88;;;;;;;;;;5009581;28;20453;-64
2024/04/01 11:47:24;;;;;;;14.57;7.07;;;;;;;;;;5019840;28;20040;-64
2024/04/01 11:49:51;;;;;;;10.63;6.93;;;;;;;;;;5025006;28;20033;-64
2024/04/01 11:52:18;;;;;;;12.18;6.75;;;;;;;;;;5009761;28;20044;-64
2024/04/01 11:54:44;;;;;;;10.20;6.70;;;;;;;;;;5013592;28;20025;-64
2024/04/01 11:57:21;;;;;;;13.32;6.97;;;;;;;;;;5013438;28;20196;-64
2024/04/01 11:59:47;;;;;;;11.15;6.95;;;;;;;;;;5017995;28;20410;-64
2024/04/01 12:02:13;;;;;;;12.63;7.03;;;;;;;;;;5017847;28;20052;-65
2024/04/01 12:04:39;;;;;;;13.75;7.38;;;;;;;;;;5015405;28;20113;-64
2024/04/01 12:07:05;;;;;;;14.57;7.50;;;;;;;;;;5017153;28;20460;-64
2024/04/01 12:09:34;;;;;;;13.65;7.05;;;;;;;;;;5014147;28;20033;-66
2024/04/01 12:12:01;;;;;;;11.82;6.80;;;;;;;;;;5013123;28;20037;-67
2024/04/01 12:14:31;;;;;;;11.35;7.38;;;;;;;;;;5018811;28;20025;-65
2024/04/01 12:16:58;;;;;;;13.80;7.07;;;;;;;;;;5009574;28;20033;-65
2024/04/01 12:19:25;;;;;;;10.43;6.95;;;;;;;;;;5006938;28;20278;-65
2024/04/01 12:21:51;;;;;;;12.95;7.38;;;;;;;;;;5019260;28;20818;-64
2024/04/01 12:24:17;;;;;;;13.20;8.48;;;;;;;;;;5022625;28;20442;-66
2024/04/01 12:26:44;;;;;;;12.20;7.45;;;;;;;;;;5017419;28;20727;-65
2024/04/01 12:29:13;;;;;;;14.70;7.65;;;;;;;;;;5022706;28;20060;-66
2024/04/01 12:31:45;;;;;;;14.52;7.60;;;;;;;;;;5016121;28;20563;-65
2024/04/01 12:34:11;;;;;;;12.75;7.50;;;;;;;;;;5013868;28;20033;-65
2024/04/01 12:36:37;;;;;;;13.35;7.72;;;;;;;;;;5016151;28;20127;-65
2024/04/01 12:39:03;;;;;;;12.10;7.13;;;;;;;;;;5014260;28;20145;-65
2024/04/01 12:41:30;;;;;;;14.02;7.80;;;;;;;;;;5011710;28;20029;-65
2024/04/01 12:43:56;;;;;;;16.27;8.60;;;;;;;;;;5009947;28;20081;-65
2024/04/01 12:46:23;;;;;;;13.52;7.50;;;;;;;;;;5025028;28;20029;-65
2024/04/01 12:48:54;;;;;;;15.20;8.70;;;;;;;;;;5017755;28;20029;-65
2024/04/01 12:51:22;;;;;;;14.32;6.60;;;;;;;;;;5016233;28;20122;-63
2024/04/01 12:54:08;;;;;;;13.02;6.85;;;;;;;;;;5020078;28;20035;-63
2024/04/01 12:56:40;;;;;;;13.65;7.28;;;;;;;;;;5008697;28;20140;-63
2024/04/01 12:59:25;;;;;;;12.30;6.80;;;;;;;;;;5014412;28;20431;-65
2024/04/01 13:01:51;;;;;;;13.38;7.45;;;;;;;;;;5013488;28;20044;-64
2024/04/01 13:04:35;;;;;;;14.13;7.45;;;;;;;;;;5014229;28;20182;-65
2024/04/01 13:07:13;;;;;;;11.60;6.95;;;;;;;;;;5014949;28;20048;-65
2024/04/01 13:09:43;;;;;;;11.65;6.53;;;;;;;;;;5016917;28;20037;-64
2024/04/01 13:12:20;;;;;;;13.73;7.13;;;;;;;;;;5015928;28;20026;-64
2024/04/01 13:14:46;;;;;;;14.30;7.07;;;;;;;;;;5015540;28;20477;-64
2024/04/01 13:17:15;;;;;;;10.85;6.05;;;;;;;;;;5019318;28;20171;-64
2024/04/01 13:19:48;;;;;;;9.98;5.68;;;;;;;;;;5016571;28;20486;-65
2024/04/01 13:22:37;;;;;;;10.38;6.35;;;;;;;;;;5016505;28;20113;-64
2024/04/01 13:25:23;;;;;;;12.15;7.07;;;;;;;;;;5012017;28;20136;-64
2024/04/01 13:28:09;;;;;;;10.25;5.57;;;;;;;;;;4993825;28;20420;-64
2024/04/01 13:30:42;;;;;;;10.45;6.03;;;;;;;;;;5016069;28;20037;-66
2024/04/01 13:33:11;;;;;;;15.73;5.93;;;;;;;;;;5013484;28;20025;-65
2024/04/01 13:35:56;;;;;;;11.52;6.30;;;;;;;;;;5015957;28;20405;-65
2024/04/01 13:38:33;;;;;;;11.52;6.78;;;;;;;;;;5020341;28;20033;-65
2024/04/01 13:41:08;;;;;;;10.02;5.80;;;;;;;;;;5010294;28;20032;-65
2024/04/01 13:43:42;;;;;;;11.07;5.20;;;;;;;;;;5018069;28;20035;-65
2024/04/01 13:46:11;;;;;;;9.00;5.30;;;;;;;;;;5015933;28;20391;-65
2024/04/01 13:48:39;;;;;;;8.23;5.10;;;;;;;;;;5013827;28;20442;-64
2024/04/01 13:51:08;;;;;;;7.57;4.53;;;;;;;;;;5014213;28;20045;-65
2024/04/01 13:53:45;;;;;;;7.47;4.90;;;;;;;;;;5022121;28;20033;-64
2024/04/01 13:56:27;;;;;;;7.00;4.13;;;;;;;;;;5016616;28;20432;-66
2024/04/01 13:59:11;;;;;;;7.63;4.07;;;;;;;;;;5009702;28;20029;-67
2024/04/01 14:01:45;;;;;;;7.07;4.18;;;;;;;;;;5020333;28;20354;-65
2024/04/01 14:04:23;;;;;;;8.40;4.43;;;;;;;;;;5019628;28;20383;-65
2024/04/01 14:06:57;;;;;;;7.57;3.70;;;;;;;;;;5016588;28;20033;-65
2024/04/01 14:09:26;;;;;;;6.85;3.63;;;;;;;;;;5015115;28;20041;-65
2024/04/01 14:12:02;;;;;;;6.95;3.53;;;;;;;;;;5014926;28;20437;-64
2024/04/01 14:14:42;;;;;;;7.22;4.40;;;;;;;;;;5024206;28;20126;-64
2024/04/01 14:17:26;;;;;;;6.70;4.07;;;;;;;;;;5020157;28;20036;-65
2024/04/01 14:20:12;;;;;;;7.13;4.22;;;;;;;;;;5013889;28;20101;-64
2024/04/01 14:22:38;;;;;;;6.18;3.80;;;;;;;;;;5020357;28;20033;-65
2024/04/01 14:25:04;;;;;;;6.18;3.90;;;;;;;;;;5014873;28;20407;-65
2024/04/01 14:27:31;;;;;;;8.30;4.75;;;;;;;;;;4998839;28;20030;-65
2024/04/01 14:29:57;;;;;;;7.65;4.07;;;;;;;;;;5010067;28;20027;-65
2024/04/01 14:32:24;;;;;;;7.65;3.88;;;;;;;;;;5021695;28;20029;-64
2024/04/01 14:34:50;;;;;;;6.43;3.70;;;;;;;;;;5018108;28;20128;-65
2024/04/01 14:37:16;;;;;;;4.47;2.72;;;;;;;;;;5024754;28;20025;-64
2024/04/01 14:39:42;;;;;;;5.95;3.47;;;;;;;;;;5023854;28;20025;-66